createdAt,value
2022-10-05T00:01:16.190Z,25.13
2022-10-05T00:03:48.566Z,25.09
2022-10-05T00:06:27.104Z,25.03
2022-10-05T00:08:54.947Z,25.05
2022-10-05T00:11:26.625Z,25.07
2022-10-05T00:13:54.536Z,25.08
2022-10-05T00:16:22.226Z,25.09
2022-10-05T00:18:51.745Z,25.06
2022-10-05T00:21:27.800Z,25.02
2022-10-05T00:23:58.342Z,25.05
2022-10-05T00:26:33.368Z,24.99
2022-10-05T00:29:03.122Z,24.90
2022-10-05T00:31:39.238Z,24.93
2022-10-05T00:34:07.090Z,24.92
2022-10-05T00:36:34.267Z,24.88
2022-10-05T00:39:06.888Z,24.86
2022-10-05T00:42:11.576Z,24.73
2022-10-05T00:45:03.029Z,24.68
2022-10-05T00:47:55.543Z,24.69
2022-10-05T00:50:53.199Z,24.54
2022-10-05T00:53:30.825Z,24.49
2022-10-05T00:56:17.368Z,24.48
2022-10-05T00:59:23.968Z,24.44
2022-10-05T01:02:15.938Z,24.40
2022-10-05T01:05:16.145Z,24.41
2022-10-05T01:08:03.613Z,24.36
2022-10-05T01:10:49.715Z,24.32
2022-10-05T01:13:28.992Z,24.39
2022-10-05T01:16:09.750Z,24.29
2022-10-05T01:18:52.054Z,24.39
2022-10-05T01:21:26.233Z,24.32
2022-10-05T01:24:11.556Z,24.23
2022-10-05T01:27:12.312Z,24.06
2022-10-05T01:30:12.789Z,24.25
2022-10-05T01:33:15.256Z,24.14
2022-10-05T01:36:15.044Z,24.10
2022-10-05T01:38:56.319Z,24.14
2022-10-05T01:41:35.773Z,24.15
2022-10-05T01:44:12.024Z,24.04
2022-10-05T01:46:52.395Z,23.92
2022-10-05T01:49:45.448Z,23.80
2022-10-05T01:52:31.497Z,23.85
2022-10-05T01:55:27.538Z,23.97
2022-10-05T01:58:20.133Z,23.91
2022-10-05T02:01:16.013Z,23.72
2022-10-05T02:03:59.607Z,23.76
2022-10-05T02:06:34.577Z,23.77
2022-10-05T02:09:14.211Z,23.69
2022-10-05T02:11:46.325Z,23.61
2022-10-05T02:14:23.245Z,23.68
2022-10-05T02:17:01.230Z,23.64
2022-10-05T02:19:35.806Z,23.57
2022-10-05T02:22:21.216Z,23.55
2022-10-05T02:24:54.593Z,23.55
2022-10-05T02:27:34.325Z,23.49
2022-10-05T02:30:14.220Z,23.52
2022-10-05T02:33:06.870Z,23.39
2022-10-05T02:35:37.025Z,23.37
2022-10-05T02:38:24.200Z,23.40
2022-10-05T02:40:57.737Z,23.40
2022-10-05T02:44:02.718Z,23.36
2022-10-05T02:46:57.724Z,23.25
2022-10-05T02:49:55.142Z,23.30
2022-10-05T02:52:37.132Z,23.17
2022-10-05T02:55:24.808Z,23.27
2022-10-05T02:58:11.822Z,23.23
2022-10-05T03:01:00.413Z,23.09
2022-10-05T03:03:32.460Z,23.18
2022-10-05T03:06:08.120Z,23.17
2022-10-05T03:08:50.561Z,23.23
2022-10-05T03:11:30.219Z,23.16
2022-10-05T03:14:18.752Z,23.15
2022-10-05T03:17:07.089Z,23.13
2022-10-05T03:19:59.098Z,23.18
2022-10-05T03:22:56.374Z,23.09
2022-10-05T03:25:58.117Z,23.07
2022-10-05T03:28:41.538Z,23.14
2022-10-05T03:31:52.318Z,23.14
2022-10-05T03:34:46.076Z,23.14
2022-10-05T03:37:43.027Z,23.10
2022-10-05T03:40:26.452Z,23.06
2022-10-05T03:43:21.611Z,23.00
2022-10-05T03:45:56.381Z,23.08
2022-10-05T03:48:32.536Z,23.04
2022-10-05T03:51:15.158Z,23.08
2022-10-05T03:53:51.127Z,23.03
2022-10-05T03:56:54.940Z,23.05
2022-10-05T03:59:36.210Z,23.05
2022-10-05T04:02:13.437Z,23.14
2022-10-05T04:05:05.611Z,23.14
2022-10-05T04:07:48.298Z,23.07
2022-10-05T04:10:26.770Z,23.02
2022-10-05T04:13:21.890Z,23.04
2022-10-05T04:15:58.005Z,23.02
2022-10-05T04:18:41.125Z,23.06
2022-10-05T04:21:24.218Z,23.04
2022-10-05T04:24:18.723Z,23.02
2022-10-05T04:26:55.843Z,23.06
2022-10-05T04:29:53.079Z,23.09
2022-10-05T04:32:43.626Z,23.02
2022-10-05T04:35:31.354Z,23.04
2022-10-05T04:38:48.013Z,23.02
2022-10-05T04:41:40.161Z,23.08
2022-10-05T04:44:22.810Z,22.99
2022-10-05T04:47:26.082Z,23.01
2022-10-05T04:50:25.143Z,23.04
2022-10-05T04:53:40.257Z,22.95
2022-10-05T04:56:39.168Z,22.89
2022-10-05T04:59:17.575Z,22.95
2022-10-05T05:01:54.577Z,22.86
2022-10-05T05:04:25.833Z,22.91
2022-10-05T05:07:09.599Z,22.83
2022-10-05T05:10:17.448Z,22.94
2022-10-05T05:13:02.100Z,22.90
2022-10-05T05:15:36.545Z,22.85
2022-10-05T05:18:25.723Z,22.80
2022-10-05T05:21:21.027Z,22.75
2022-10-05T05:24:03.367Z,22.61
2022-10-05T05:26:53.340Z,22.69
2022-10-05T05:29:35.634Z,22.66
2022-10-05T05:32:09.238Z,22.65
2022-10-05T05:34:48.542Z,22.69
2022-10-05T05:37:40.199Z,22.70
2022-10-05T05:40:12.993Z,22.70
2022-10-05T05:43:08.596Z,22.77
2022-10-05T05:46:02.670Z,22.71
2022-10-05T05:48:33.891Z,22.68
2022-10-05T05:51:12.402Z,22.60
2022-10-05T05:53:49.909Z,22.60
2022-10-05T05:56:28.018Z,22.65
2022-10-05T05:59:36.867Z,22.67
2022-10-05T06:02:12.571Z,22.60
2022-10-05T06:04:57.073Z,22.59
2022-10-05T06:07:31.361Z,22.56
2022-10-05T06:10:32.264Z,22.64
2022-10-05T06:13:41.128Z,22.64
2022-10-05T06:16:18.984Z,22.51
2022-10-05T06:19:29.139Z,22.61
2022-10-05T06:22:19.784Z,22.59
2022-10-05T06:25:07.234Z,22.68
2022-10-05T06:28:17.539Z,22.67
2022-10-05T06:31:11.047Z,22.70
2022-10-05T06:33:56.771Z,22.70
2022-10-05T06:36:50.911Z,22.76
2022-10-05T06:39:43.968Z,22.83
2022-10-05T06:42:51.131Z,22.81
2022-10-05T06:46:04.051Z,22.77
2022-10-05T06:49:23.614Z,22.88
2022-10-05T06:52:26.766Z,22.94
2022-10-05T06:55:18.794Z,22.96
2022-10-05T06:57:46.977Z,22.98
2022-10-05T07:00:28.246Z,23.04
2022-10-05T07:03:35.248Z,22.97
2022-10-05T07:06:14.918Z,23.00
2022-10-05T07:09:12.244Z,23.01
2022-10-05T07:12:03.568Z,23.10
2022-10-05T07:14:53.926Z,22.88
2022-10-05T07:17:23.855Z,22.88
2022-10-05T07:20:16.331Z,23.01
2022-10-05T07:23:06.199Z,23.00
2022-10-05T07:25:39.416Z,22.98
2022-10-05T07:28:32.793Z,23.18
2022-10-05T07:31:52.318Z,23.07
2022-10-05T07:34:27.290Z,23.16
2022-10-05T07:37:46.557Z,23.18
2022-10-05T07:40:51.339Z,23.28
2022-10-05T07:43:22.414Z,23.06
2022-10-05T07:45:59.473Z,23.08
2022-10-05T07:48:53.987Z,23.30
2022-10-05T07:51:41.535Z,23.39
2022-10-05T07:54:28.856Z,23.58
2022-10-05T07:57:00.169Z,23.46
2022-10-05T07:59:44.137Z,23.72
2022-10-05T08:02:44.807Z,23.74
2022-10-05T08:05:26.608Z,24.01
2022-10-05T08:08:36.006Z,24.15
2022-10-05T08:11:27.674Z,24.43
2022-10-05T08:14:14.349Z,24.82
2022-10-05T08:16:41.431Z,24.86
2022-10-05T08:19:26.583Z,25.08
2022-10-05T08:22:04.567Z,25.13
2022-10-05T08:24:40.803Z,25.63
2022-10-05T08:27:13.261Z,25.93
2022-10-05T08:29:56.009Z,26.10
2022-10-05T08:32:26.762Z,26.39
2022-10-05T08:35:02.280Z,26.71
2022-10-05T08:37:41.783Z,26.80
2022-10-05T08:40:37.387Z,27.14
2022-10-05T08:43:10.576Z,27.15
2022-10-05T08:45:53.530Z,27.30
2022-10-05T08:48:39.109Z,27.53
2022-10-05T08:51:24.097Z,27.59
2022-10-05T08:54:24.841Z,27.95
2022-10-05T08:56:55.066Z,28.09
2022-10-05T08:59:53.597Z,28.26
2022-10-05T09:02:59.206Z,28.32
2022-10-05T09:06:00.474Z,28.28
2022-10-05T09:08:36.566Z,28.70
2022-10-05T09:11:40.841Z,28.90
2022-10-05T09:14:43.193Z,28.78
2022-10-05T09:17:19.665Z,29.00
2022-10-05T09:20:16.715Z,29.26
2022-10-05T09:22:46.959Z,28.97
2022-10-05T09:25:25.560Z,29.38
2022-10-05T09:27:57.788Z,29.64
2022-10-05T09:31:07.255Z,29.53
2022-10-05T09:33:53.350Z,29.48
2022-10-05T09:36:58.921Z,29.87
2022-10-05T09:39:44.495Z,29.55
2022-10-05T09:42:45.607Z,29.30
2022-10-05T09:45:31.533Z,29.37
2022-10-05T09:48:27.358Z,30.04
2022-10-05T09:51:14.698Z,29.37
2022-10-05T09:54:29.442Z,30.14
2022-10-05T09:57:37.281Z,29.96
2022-10-05T10:00:27.778Z,29.81
2022-10-05T10:03:43.104Z,30.32
2022-10-05T10:06:25.738Z,30.40
2022-10-05T10:09:02.052Z,30.63
2022-10-05T10:11:29.559Z,30.83
2022-10-05T10:14:20.811Z,31.25
2022-10-05T10:17:00.527Z,31.31
2022-10-05T10:19:43.008Z,31.35
2022-10-05T10:22:25.365Z,31.61
2022-10-05T10:25:05.117Z,31.33
2022-10-05T10:27:53.158Z,31.20
2022-10-05T10:30:39.057Z,31.61
2022-10-05T10:33:28.311Z,31.84
2022-10-05T10:36:29.396Z,32.18
2022-10-05T10:39:13.804Z,32.09
2022-10-05T10:41:51.363Z,31.86
2022-10-05T10:44:58.596Z,32.15
2022-10-05T10:47:29.081Z,32.54
2022-10-05T10:50:23.550Z,32.72
2022-10-05T10:53:10.597Z,33.00
2022-10-05T10:56:08.978Z,32.81
2022-10-05T10:58:45.374Z,33.18
2022-10-05T11:01:31.895Z,33.02
2022-10-05T11:04:09.489Z,33.00
2022-10-05T11:07:02.821Z,33.15
2022-10-05T11:10:08.991Z,33.00
2022-10-05T11:13:05.527Z,33.38
2022-10-05T11:18:48.994Z,32.93
2022-10-05T11:21:16.007Z,33.34
2022-10-05T11:24:01.940Z,32.94
2022-10-05T11:26:41.279Z,33.38
2022-10-05T11:29:45.754Z,33.49
2022-10-05T11:32:31.564Z,33.14
2022-10-05T11:35:11.005Z,33.52
2022-10-05T11:37:59.119Z,32.87
2022-10-05T11:40:44.617Z,33.09
2022-10-05T11:43:26.514Z,33.13
2022-10-05T11:46:29.087Z,33.54
2022-10-05T11:49:13.199Z,33.76
2022-10-05T11:52:15.576Z,33.73
2022-10-05T11:55:11.964Z,34.38
2022-10-05T11:57:59.482Z,34.44
2022-10-05T12:00:45.185Z,34.35
2022-10-05T12:03:33.442Z,34.54
2022-10-05T12:06:36.893Z,34.34
2022-10-05T12:09:25.157Z,34.45
2022-10-05T12:12:08.583Z,34.36
2022-10-05T12:14:59.076Z,34.97
2022-10-05T12:17:48.693Z,34.68
2022-10-05T12:20:31.926Z,35.12
2022-10-05T12:23:07.488Z,35.34
2022-10-05T12:25:44.434Z,35.58
2022-10-05T12:28:17.746Z,35.31
2022-10-05T12:31:12.086Z,36.03
2022-10-05T12:34:07.246Z,35.82
2022-10-05T12:37:05.695Z,35.55
2022-10-05T12:42:51.840Z,35.66
2022-10-05T12:45:54.475Z,35.81
2022-10-05T12:49:00.158Z,36.05
2022-10-05T12:51:56.265Z,35.81
2022-10-05T12:54:44.028Z,36.12
2022-10-05T12:57:21.345Z,36.39
2022-10-05T13:00:00.428Z,36.63
2022-10-05T13:02:43.736Z,36.03
2022-10-05T13:05:11.036Z,36.33
2022-10-05T13:08:11.305Z,36.50
2022-10-05T13:10:52.517Z,36.09
2022-10-05T13:13:52.203Z,36.45
2022-10-05T13:16:50.192Z,36.37
2022-10-05T13:19:40.092Z,36.31
2022-10-05T13:22:31.046Z,36.69
2022-10-05T13:25:35.605Z,36.21
2022-10-05T13:28:19.115Z,35.94
2022-10-05T13:31:11.662Z,35.90
2022-10-05T13:34:38.512Z,35.75
2022-10-05T13:37:43.267Z,36.09
2022-10-05T13:40:30.347Z,36.60
2022-10-05T13:43:09.646Z,36.31
2022-10-05T13:45:57.266Z,36.41
2022-10-05T13:48:57.666Z,36.53
2022-10-05T13:51:53.211Z,36.05
2022-10-05T13:55:10.492Z,35.93
2022-10-05T13:58:17.677Z,35.34
2022-10-05T14:01:19.298Z,35.89
2022-10-05T14:04:34.174Z,35.95
2022-10-05T14:07:36.725Z,35.74
2022-10-05T14:10:16.495Z,35.99
2022-10-05T14:13:27.800Z,35.36
2022-10-05T14:16:27.321Z,34.41
2022-10-05T14:19:35.589Z,34.77
2022-10-05T14:22:27.439Z,34.36
2022-10-05T14:25:23.441Z,34.30
2022-10-05T14:28:22.881Z,33.73
2022-10-05T14:30:59.776Z,33.84
2022-10-05T14:33:34.578Z,33.86
2022-10-05T14:36:27.982Z,33.44
2022-10-05T14:39:08.937Z,33.35
2022-10-05T14:41:49.944Z,33.00
2022-10-05T14:44:36.283Z,32.65
2022-10-05T14:50:36.138Z,32.37
2022-10-05T14:53:04.133Z,32.17
2022-10-05T14:55:55.512Z,32.13
2022-10-05T14:58:57.738Z,32.06
2022-10-05T15:01:42.284Z,31.63
2022-10-05T15:04:42.425Z,31.09
2022-10-05T15:07:19.548Z,31.82
2022-10-05T15:10:22.263Z,31.27
2022-10-05T15:13:11.504Z,31.09
2022-10-05T15:15:55.412Z,30.77
2022-10-05T15:19:06.743Z,30.66
2022-10-05T15:22:07.580Z,30.80
2022-10-05T15:25:02.333Z,30.68
2022-10-05T15:28:01.602Z,30.39
2022-10-05T15:30:35.203Z,30.51
2022-10-05T15:33:05.697Z,30.58
2022-10-05T15:35:57.405Z,30.21
2022-10-05T15:38:27.895Z,30.31
2022-10-05T15:40:59.025Z,30.11
2022-10-05T15:43:41.949Z,30.45
2022-10-05T15:46:34.385Z,30.24
2022-10-05T15:49:14.838Z,30.10
2022-10-05T15:51:53.348Z,29.92
2022-10-05T15:54:44.045Z,29.97
2022-10-05T15:57:38.955Z,29.84
2022-10-05T16:00:11.640Z,30.24
2022-10-05T16:03:06.693Z,30.06
2022-10-05T16:06:01.460Z,29.91
2022-10-05T16:08:50.272Z,29.88
2022-10-05T16:11:29.473Z,29.68
2022-10-05T16:14:28.690Z,29.69
2022-10-05T16:17:27.548Z,29.44
2022-10-05T16:20:26.045Z,29.45
2022-10-05T16:22:53.481Z,29.50
2022-10-05T16:25:26.811Z,29.31
2022-10-05T16:28:10.346Z,29.05
2022-10-05T16:30:55.559Z,29.23
2022-10-05T16:33:59.478Z,29.04
2022-10-05T16:36:53.572Z,28.74
2022-10-05T16:39:58.016Z,28.93
2022-10-05T16:42:35.361Z,28.81
2022-10-05T16:45:24.136Z,28.69
2022-10-05T16:48:13.511Z,28.83
2022-10-05T16:50:47.200Z,28.75
2022-10-05T16:53:25.333Z,28.63
2022-10-05T16:55:58.831Z,28.54
2022-10-05T16:58:31.985Z,28.46
2022-10-05T17:01:37.373Z,28.46
2022-10-05T17:04:26.010Z,28.58
2022-10-05T17:07:25.458Z,28.30
2022-10-05T17:10:03.655Z,28.26
2022-10-05T17:12:43.033Z,28.27
2022-10-05T17:15:32.559Z,28.32
2022-10-05T17:18:11.421Z,28.18
2022-10-05T17:20:44.491Z,28.13
2022-10-05T17:23:31.471Z,27.93
2022-10-05T17:26:27.431Z,28.03
2022-10-05T17:29:10.280Z,27.92
2022-10-05T17:32:00.309Z,27.97
2022-10-05T17:34:37.540Z,27.96
2022-10-05T17:37:39.753Z,27.95
2022-10-05T17:40:37.612Z,27.91
2022-10-05T17:43:25.546Z,27.85
2022-10-05T17:46:03.644Z,27.92
2022-10-05T17:48:49.475Z,27.88
2022-10-05T17:51:50.435Z,27.82
2022-10-05T17:54:43.016Z,27.67
2022-10-05T17:57:16.780Z,27.74
2022-10-05T18:00:06.252Z,27.58
2022-10-05T18:02:43.118Z,27.77
2022-10-05T18:05:26.142Z,27.57
2022-10-05T18:08:12.126Z,27.63
2022-10-05T18:11:07.960Z,27.52
2022-10-05T18:13:44.121Z,27.56
2022-10-05T18:16:54.610Z,27.65
2022-10-05T18:19:23.342Z,27.51
2022-10-05T18:22:03.909Z,27.50
2022-10-05T18:24:44.486Z,27.61
2022-10-05T18:27:36.769Z,27.58
2022-10-05T18:30:08.106Z,27.50
2022-10-05T18:32:51.915Z,27.47
2022-10-05T18:35:28.530Z,27.56
2022-10-05T18:38:05.472Z,27.62
2022-10-05T18:41:10.234Z,27.54
2022-10-05T18:43:51.453Z,27.59
2022-10-05T18:46:39.005Z,27.56
2022-10-05T18:49:32.843Z,27.60
2022-10-05T18:52:19.193Z,27.53
2022-10-05T18:55:21.114Z,27.45
2022-10-05T18:57:57.687Z,27.40
2022-10-05T19:00:52.142Z,27.44
2022-10-05T19:03:33.572Z,27.48
2022-10-05T19:06:15.782Z,27.50
2022-10-05T19:09:04.533Z,27.50
2022-10-05T19:11:56.731Z,27.35
2022-10-05T19:14:51.523Z,27.39
2022-10-05T19:17:32.125Z,27.41
2022-10-05T19:20:38.688Z,27.20
2022-10-05T19:23:24.268Z,27.35
2022-10-05T19:26:22.945Z,27.09
2022-10-05T19:28:58.829Z,27.16
2022-10-05T19:31:56.973Z,27.04
2022-10-05T19:35:00.870Z,27.12
2022-10-05T19:38:00.939Z,27.00
2022-10-05T19:41:18.713Z,27.00
2022-10-05T19:44:05.870Z,26.95
2022-10-05T19:47:11.023Z,27.00
2022-10-05T19:49:56.888Z,26.88
2022-10-05T19:52:49.780Z,26.86
2022-10-05T19:55:42.381Z,26.91
2022-10-05T19:58:34.732Z,26.95
2022-10-05T20:01:08.002Z,26.98
2022-10-05T20:03:49.929Z,26.87
2022-10-05T20:06:28.763Z,26.90
2022-10-05T20:09:21.628Z,26.87
2022-10-05T20:11:54.715Z,26.95
2022-10-05T20:14:58.570Z,26.86
2022-10-05T20:17:51.362Z,26.81
2022-10-05T20:20:37.149Z,26.74
2022-10-05T20:23:29.349Z,26.76
2022-10-05T20:26:25.430Z,26.80
2022-10-05T20:28:56.403Z,26.74
2022-10-05T20:31:23.964Z,26.70
2022-10-05T20:33:55.871Z,26.72
2022-10-05T20:36:27.021Z,26.70
2022-10-05T20:39:01.472Z,26.63
2022-10-05T20:41:28.807Z,26.64
2022-10-05T20:43:56.191Z,26.61
2022-10-05T20:46:23.499Z,26.63
2022-10-05T20:48:53.022Z,26.57
2022-10-05T20:51:21.138Z,26.51
2022-10-05T20:53:48.317Z,26.55
2022-10-05T20:56:21.876Z,26.53
2022-10-05T20:58:50.235Z,26.54
2022-10-05T21:01:23.392Z,26.51
2022-10-05T21:03:50.998Z,26.46
2022-10-05T21:06:18.648Z,26.51
2022-10-05T21:08:47.641Z,26.55
2022-10-05T21:11:17.942Z,26.60
2022-10-05T21:13:47.078Z,26.57
2022-10-05T21:16:19.819Z,26.57
2022-10-05T21:18:51.187Z,26.58
2022-10-05T21:21:19.118Z,26.49
2022-10-05T21:23:58.877Z,26.56
2022-10-05T21:26:45.568Z,26.48
2022-10-05T21:29:13.587Z,26.45
2022-10-05T21:31:41.823Z,26.44
2022-10-05T21:34:11.822Z,26.37
2022-10-05T21:36:38.844Z,26.41
2022-10-05T21:39:06.076Z,26.38
2022-10-05T21:41:34.091Z,26.35
2022-10-05T21:44:01.562Z,26.34
2022-10-05T21:46:30.238Z,26.35
2022-10-05T21:48:57.710Z,26.36
2022-10-05T21:51:26.848Z,26.30
2022-10-05T21:54:01.995Z,26.27
2022-10-05T21:56:37.280Z,26.16
2022-10-05T21:59:14.058Z,26.19
2022-10-05T22:01:41.468Z,26.22
2022-10-05T22:04:08.895Z,26.15
2022-10-05T22:06:40.978Z,26.16
2022-10-05T22:09:08.487Z,26.05
2022-10-05T22:11:35.707Z,26.13
2022-10-05T22:14:05.935Z,26.13
2022-10-05T22:16:37.635Z,26.12
2022-10-05T22:19:08.565Z,26.05
2022-10-05T22:21:42.173Z,26.02
2022-10-05T22:24:12.219Z,26.07
2022-10-05T22:26:43.151Z,26.04
2022-10-05T22:29:13.896Z,25.92
2022-10-05T22:31:42.498Z,25.86
2022-10-05T22:34:09.699Z,25.93
2022-10-05T22:36:37.692Z,25.95
2022-10-05T22:39:08.626Z,25.89
2022-10-05T22:41:35.887Z,25.89
2022-10-05T22:44:13.451Z,25.85
2022-10-05T22:46:40.710Z,25.88
2022-10-05T22:49:07.999Z,25.89
2022-10-05T22:51:38.730Z,25.83
2022-10-05T22:54:10.043Z,25.85
2022-10-05T22:56:37.692Z,25.83
2022-10-05T22:59:04.962Z,25.85
2022-10-05T23:01:32.363Z,25.92
2022-10-05T23:04:02.392Z,25.90
2022-10-05T23:06:30.556Z,25.93
2022-10-05T23:08:58.310Z,25.91
2022-10-05T23:11:27.888Z,25.85
2022-10-05T23:13:57.101Z,25.80
2022-10-05T23:16:27.318Z,25.79
2022-10-05T23:18:55.326Z,25.74
2022-10-05T23:21:24.459Z,25.68
2022-10-05T23:23:51.725Z,25.70
2022-10-05T23:26:22.149Z,25.71
2022-10-05T23:28:50.890Z,25.70
2022-10-05T23:31:25.136Z,25.73
2022-10-05T23:33:53.833Z,25.73
2022-10-05T23:36:32.582Z,25.76
2022-10-05T23:39:00.591Z,25.76
2022-10-05T23:41:27.848Z,25.63
2022-10-05T23:43:55.442Z,25.71
2022-10-05T23:46:24.048Z,25.60
2022-10-05T23:48:51.533Z,25.67
2022-10-05T23:51:19.191Z,25.59
2022-10-05T23:53:46.557Z,25.59
2022-10-05T23:56:13.853Z,25.64
2022-10-05T23:58:41.437Z,25.60
